Latest Weather Observations for Lockhart River

IDQ60801

Issued at 4:02 pm EST Friday 29 May 2015 (issued every 30 minutes, with the page automatically refreshed every 10 minutes)

About weather observations | Map of weather stations | Latest weather observations for QLD | Other Formats
Station Details ID: 028008 Name: LOCKHART RIVER AIRPORT Lat: -12.79 Lon: 143.30 Height: 18.5 m
Data from the previous 72 hours. | See also: Recent months at Lockhart River
Date/Time
EST
Temp
°C
App
Temp
°C
Dew
Point
Rel
Hum
%
Delta-T
°C
Wind Press
QNH
hPa
Press
MSL
hPa
Rain
since 9 am
mm
Dir
 
Spd
km/h
Gust
km/h
Spd
kts
Gust
kts
29/04:00pm 26.4 27.6 22.5 79 2.6 ESE 20 35 11 19 1013.2 - 0.6
29/03:30pm 26.3 28.1 23.2 83 2.1 ESE 19 37 10 20 1013.3 - 0.6
29/03:23pm 26.2 27.9 23.1 83 2.1 ESE 19 28 10 15 1013.3 - 0.6
29/03:00pm 26.3 27.8 23.0 82 2.2 ESE 20 28 11 15 1013.2 1013.1 0.6
29/02:53pm 26.4 28.1 23.1 82 2.2 ESE 19 26 10 14 1013.2 - 0.6
29/02:30pm 26.4 27.6 22.5 79 2.6 ESE 20 32 11 17 1013.3 - 0.6
29/02:03pm 26.6 28.3 23.1 81 2.4 ESE 19 28 10 15 1013.4 - 0.4
29/02:00pm 26.7 28.6 23.4 82 2.3 ESE 19 28 10 15 1013.5 - 0.4
29/01:49pm 26.3 27.9 23.2 83 2.1 ESE 20 32 11 17 1013.6 - 0.4
29/01:30pm 25.8 26.2 22.5 82 2.2 ESE 24 37 13 20 1013.8 - 0.4
29/01:00pm 26.4 27.7 22.7 80 2.5 ESE 20 35 11 19 1014.1 - 0.4
29/12:30pm 27.2 28.3 22.4 75 3.2 ESE 20 30 11 16 1014.5 - 0.4
29/12:00pm 26.9 27.4 22.7 78 2.8 ESE 24 44 13 24 1014.6 1014.5 0.4
29/11:30am 26.9 28.6 24.0 84 2.0 ESE 22 35 12 19 1015.2 - 0.4
29/11:00am 24.9 26.0 23.0 89 1.3 ESE 22 39 12 21 1015.6 - 0.4
29/10:30am 26.7 26.9 22.8 79 2.6 ESE 26 48 14 26 1015.6 - 0.0
29/10:22am 26.6 26.2 22.4 78 2.8 ESE 28 48 15 26 1015.7 - 0.0
29/10:00am 26.2 26.5 22.9 82 2.2 ESE 26 44 14 24 1015.7 - 0.0
29/09:30am 26.0 26.9 22.7 82 2.2 ESE 22 32 12 17 1015.7 - 0.0
29/09:00am 25.6 27.4 23.3 87 1.6 SE 19 22 10 12 1015.5 1015.4 8.4
29/08:30am 25.4 26.7 22.7 85 1.8 SE 20 26 11 14 1015.0 - 8.4
29/08:05am 25.2 26.4 22.5 85 1.8 ESE 20 33 11 18 1015.0 - 8.4
29/08:00am 25.1 26.5 22.8 87 1.6 SE 20 30 11 16 1014.9 - 8.4
29/07:30am 24.7 25.8 23.1 91 1.1 SE 22 28 12 15 1014.5 - 8.4
29/07:00am 24.6 26.3 23.0 91 1.1 SE 19 30 10 16 1014.3 - 8.4
29/06:30am 24.5 27.1 22.7 90 1.2 SE 13 20 7 11 1014.1 - 8.2
29/06:00am 24.6 26.1 22.7 89 1.3 SE 19 28 10 15 1014.0 1013.9 8.2
29/05:30am 24.5 26.1 22.9 91 1.1 SE 19 28 10 15 1013.8 - 8.2
29/05:02am 24.3 26.4 23.1 93 0.8 SE 17 24 9 13 1013.9 - 8.2
29/05:00am 24.3 26.4 23.1 93 0.8 SE 17 24 9 13 1013.9 - 8.2
29/04:49am 24.2 26.0 23.2 94 0.7 SE 19 24 10 13 1013.8 - 8.2
29/04:30am 24.2 26.0 23.2 94 0.7 SE 19 30 10 16 1013.7 - 8.2
29/04:26am 24.3 26.5 23.3 94 0.7 SE 17 22 9 12 1013.7 - 8.2
29/04:00am 24.3 25.9 22.9 92 0.9 SE 19 24 10 13 1013.6 - 7.6
29/03:54am 24.3 25.7 22.9 92 0.9 SE 20 30 11 16 1013.7 - 7.6
29/03:30am 24.6 26.0 22.8 90 1.2 ESE 20 33 11 18 1013.6 - 7.6
29/03:00am 24.5 26.1 22.9 91 1.1 ESE 19 28 10 15 1013.7 1013.6 7.6
29/02:39am 24.2 24.3 22.6 91 1.1 ESE 26 39 14 21 1013.9 - 7.6
29/02:30am 24.6 25.6 22.8 90 1.2 SE 22 32 12 17 1013.9 - 7.4
29/02:04am 24.4 25.9 23.0 92 0.9 SE 20 30 11 16 1014.1 - 7.4
29/02:00am 24.3 26.0 23.1 93 0.8 SE 19 26 10 14 1014.2 - 7.4
29/01:30am 24.5 24.9 23.1 92 0.9 SE 26 35 14 19 1014.5 - 7.4
29/01:09am 24.5 24.5 23.1 92 0.9 SE 28 44 15 24 1014.7 - 7.4
29/01:00am 24.5 26.2 23.1 92 0.9 SE 19 26 10 14 1014.7 - 7.2
29/12:30am 25.2 25.5 22.9 87 1.6 SE 26 35 14 19 1014.8 - 7.2
29/12:00am 25.2 24.7 22.9 87 1.6 SE 30 41 16 22 1014.9 - 7.2
 
Date/Time
EST
Temp
°C
App
Temp
°C
Dew
Point
Rel
Hum
%
Delta-T
°C
Wind Press
QNH
hPa
Press
MSL
hPa
Rain
since 9 am
mm
Dir
 
Spd
km/h
Gust
km/h
Spd
kts
Gust
kts
28/11:30pm 25.4 25.9 22.7 85 1.8 ESE 24 35 13 19 1014.9 - 7.2
28/11:00pm 25.3 25.6 23.0 87 1.6 ESE 26 39 14 21 1014.9 - 7.2
28/10:30pm 25.2 25.5 22.9 87 1.6 SE 26 37 14 20 1015.1 - 7.2
28/10:00pm 25.1 25.9 23.2 89 1.3 ESE 24 35 13 19 1015.1 - 7.2
28/09:30pm 24.8 25.2 23.2 91 1.1 SE 26 39 14 21 1015.1 - 7.2
28/09:00pm 24.9 25.3 23.1 90 1.2 ESE 26 35 14 19 1014.8 1014.7 7.2
28/08:30pm 24.5 25.0 23.3 93 0.8 SE 26 35 14 19 1014.5 - 7.2
28/08:00pm 24.5 25.1 23.5 94 0.7 SE 26 39 14 21 1014.2 - 7.0
28/07:49pm 24.8 24.9 23.2 91 1.1 SE 28 43 15 23 1014.0 - 6.8
28/07:44pm 24.9 25.8 23.3 91 1.1 SE 24 37 13 20 1013.9 - 6.8
28/07:30pm 24.9 25.3 23.1 90 1.2 SE 26 39 14 21 1013.8 - 6.8
28/07:00pm 25.3 25.5 23.4 89 1.3 SE 28 43 15 23 1013.5 - 6.8
28/06:30pm 24.9 25.7 23.1 90 1.2 SE 24 35 13 19 1013.4 - 6.8
28/06:10pm 25.0 25.1 23.2 90 1.2 SE 28 46 15 25 1013.4 - 6.8
28/06:00pm 25.1 26.4 23.3 90 1.2 SE 22 35 12 19 1013.3 1013.2 6.8
28/05:30pm 25.2 26.1 23.3 89 1.3 ESE 24 33 13 18 1013.1 - 6.8
28/05:00pm 25.2 25.4 23.4 90 1.2 SE 28 43 15 23 1012.8 - 6.8
28/04:30pm 25.3 26.9 23.9 92 1.0 ESE 22 35 12 19 1012.7 - 6.8
28/04:00pm 25.0 27.0 24.0 94 0.7 SE 20 33 11 18 1012.5 - 6.8
28/03:47pm 24.9 26.4 23.7 93 0.8 ESE 22 30 12 16 1012.5 - 6.8
28/03:35pm 24.8 25.7 23.4 92 1.0 ESE 24 39 13 21 1012.4 - 6.8
28/03:30pm 24.7 26.3 23.3 92 1.0 ESE 20 39 11 21 1012.4 - 6.8
28/03:00pm 25.4 27.0 23.8 91 1.1 ESE 22 32 12 17 1012.2 1012.1 6.6
28/02:30pm 25.6 27.4 23.6 89 1.4 ESE 20 32 11 17 1012.2 - 6.4
28/02:00pm 25.7 27.2 24.3 92 1.0 ESE 24 37 13 20 1012.4 - 6.4
28/01:30pm 24.8 27.6 24.3 97 0.3 E 17 28 9 15 1012.7 - 6.4
28/01:00pm 24.8 26.9 23.8 94 0.7 SE 19 39 10 21 1013.2 - 2.6
28/12:30pm 25.6 27.3 24.6 94 0.7 SE 24 30 13 16 1013.4 - 1.2
28/12:00pm 25.7 27.9 24.3 92 1.0 SE 20 30 11 16 1013.7 1013.6 0.4
28/11:30am 25.7 28.2 24.7 94 0.7 ESE 20 30 11 16 1014.0 - 0.4
28/11:00am 26.9 28.3 24.2 85 1.9 ESE 24 43 13 23 1014.3 - 0.0
28/10:30am 26.4 27.6 23.9 86 1.7 ESE 24 39 13 21 1014.4 - 0.0
28/10:00am 26.1 27.3 23.8 87 1.6 ESE 24 33 13 18 1014.6 - 0.0
28/09:30am 25.8 27.9 23.8 89 1.4 ESE 19 30 10 16 1014.7 - 0.0
28/09:00am 25.4 26.7 24.0 92 1.0 ESE 24 35 13 19 1014.8 1014.7 6.2
28/08:30am 25.1 27.1 23.9 93 0.8 ESE 20 30 11 16 1014.4 - 6.2
28/08:00am 25.0 27.7 24.1 95 0.6 SE 17 22 9 12 1014.1 - 6.2
28/07:30am 24.8 27.5 24.1 96 0.5 SE 17 24 9 13 1013.8 - 6.2
28/07:00am 24.3 26.8 23.8 97 0.3 ESE 17 26 9 14 1013.5 - 6.2
28/06:30am 24.5 26.5 24.0 97 0.3 SE 20 30 11 16 1013.2 - 5.6
28/06:00am 24.4 27.0 23.9 97 0.3 SE 17 26 9 14 1012.9 - 4.8
28/05:30am 24.2 26.6 23.7 97 0.3 SE 17 22 9 12 1012.7 - 4.8
28/05:00am 24.0 25.8 23.5 97 0.3 SE 20 30 11 16 1012.7 - 4.8
28/04:30am 24.2 24.7 23.3 95 0.6 SE 26 37 14 20 1012.4 - 2.8
28/04:00am 24.1 25.5 23.6 97 0.3 SE 22 32 12 17 1012.2 - 2.8
28/03:30am 24.0 25.6 23.3 96 0.5 SE 20 32 11 17 1012.3 - 2.8
28/03:00am 24.1 25.7 23.2 95 0.6 ESE 20 32 11 17 1012.3 1012.2 2.4
28/02:30am 24.1 25.7 23.2 95 0.6 SE 20 32 11 17 1012.7 - 2.4
28/02:00am 23.9 25.2 23.4 97 0.3 SE 22 30 12 16 1012.8 - 2.4
28/01:30am 23.8 25.6 23.3 97 0.3 SE 19 26 10 14 1013.0 - 2.4
28/01:00am 23.9 25.5 23.2 96 0.5 SE 20 32 11 17 1013.4 - 2.0
28/12:30am 24.0 25.1 23.1 95 0.6 SE 22 32 12 17 1013.5 - 1.8
28/12:00am 24.1 25.4 23.4 96 0.5 SE 22 32 12 17 1013.7 1013.6 1.8
 
Date/Time
EST
Temp
°C
App
Temp
°C
Dew
Point
Rel
Hum
%
Delta-T
°C
Wind Press
QNH
hPa
Press
MSL
hPa
Rain
since 9 am
mm
Dir
 
Spd
km/h
Gust
km/h
Spd
kts
Gust
kts
27/11:30pm 24.0 26.1 23.1 95 0.6 SE 17 24 9 13 1013.8 - 1.4
27/11:00pm 24.0 26.6 23.3 96 0.5 SSE 15 20 8 11 1014.0 - 1.2
27/10:30pm 24.0 26.6 23.3 96 0.5 SE 15 20 8 11 1014.2 - 1.2
27/10:00pm 24.1 25.9 23.2 95 0.6 SE 19 28 10 15 1014.3 - 0.8
27/09:30pm 24.1 25.7 23.2 95 0.6 SE 20 30 11 16 1014.6 - 0.8
27/09:00pm 24.1 25.7 23.2 95 0.6 SE 20 28 11 15 1014.3 1014.2 0.8
27/08:30pm 24.2 25.9 23.0 93 0.8 ESE 19 24 10 13 1014.3 - 0.6
27/08:00pm 24.1 27.0 23.2 95 0.6 ESE 13 17 7 9 1014.0 - 0.4
27/07:30pm 24.1 25.6 23.1 94 0.7 SE 20 28 11 15 1013.8 - 0.4
27/07:00pm 24.5 26.5 22.9 91 1.1 SSE 17 24 9 13 1013.5 - 0.2
27/06:30pm 24.3 26.2 22.7 91 1.1 SSE 17 22 9 12 1013.3 - 0.2
27/06:00pm 25.0 26.8 22.5 86 1.7 SSE 17 24 9 13 1013.1 1013.0 0.2
27/05:30pm 25.2 26.5 22.3 84 1.9 SE 19 24 10 13 1012.9 - 0.2
27/05:02pm 25.3 26.7 22.6 85 1.8 SSE 19 26 10 14 1012.7 - 0.2
27/05:00pm 25.3 26.5 22.2 83 2.1 SSE 19 26 10 14 1012.6 - 0.2
27/04:30pm 25.7 26.6 22.0 80 2.5 SSE 20 30 11 16 1012.4 - 0.2
27/04:00pm 26.1 26.9 22.4 80 2.5 SSE 22 30 12 16 1012.3 - 0.2
27/03:30pm 26.1 26.6 22.0 78 2.7 SSE 22 30 12 16 1012.4 - 0.2
27/03:00pm 26.5 27.4 22.6 79 2.6 SE 22 32 12 17 1012.6 1012.5 0.2
27/02:30pm 27.1 27.3 22.1 74 3.4 SE 24 30 13 16 1012.7 - 0.2
27/02:00pm 26.9 28.3 21.9 74 3.3 SE 17 32 9 17 1013.0 - 0.2
27/01:30pm 27.1 27.4 21.6 72 3.7 SE 22 30 12 16 1013.4 - 0.2
27/01:00pm 27.6 28.9 21.6 70 4.0 SE 17 30 9 16 1013.9 - 0.2
27/12:30pm 28.8 31.5 22.8 70 4.1 SE 13 32 7 17 1014.2 - 0.2
27/12:00pm 28.7 30.0 21.7 66 4.7 SE 17 30 9 16 1014.7 1014.6 0.2
27/11:30am 27.6 27.9 20.7 66 4.6 SE 20 30 11 16 1015.1 - 0.2
27/11:00am 27.7 29.7 21.5 69 4.1 SE 13 30 7 16 1015.4 - 0.2
27/10:30am 27.0 27.6 21.3 71 3.8 ESE 20 30 11 16 1015.8 - 0.2
27/10:00am 27.0 25.4 20.8 69 4.1 SE 30 44 16 24 1015.8 - 0.2
27/09:30am 26.5 24.7 20.3 68 4.1 SE 30 39 16 21 1016.0 - 0.2
27/09:00am 26.0 23.9 20.6 72 3.5 ESE 32 43 17 23 1016.0 1015.9 3.4
27/08:30am 25.7 25.1 20.5 73 3.4 ESE 24 37 13 20 1015.8 - 3.4
27/08:00am 25.1 25.1 20.1 74 3.2 ESE 20 32 11 17 1015.4 - 3.4
27/07:30am 24.3 24.1 19.8 76 2.9 ESE 20 28 11 15 1015.2 - 3.4
27/07:00am 24.1 24.0 19.6 76 2.9 ESE 19 24 10 13 1014.9 - 3.4
27/06:30am 23.5 23.9 19.8 80 2.4 SE 17 24 9 13 1014.4 - 3.4
27/06:00am 23.6 24.1 20.1 81 2.3 SE 17 22 9 12 1014.3 1014.2 3.4
27/05:30am 23.8 24.2 20.7 83 2.0 SE 19 26 10 14 1014.2 - 3.4
27/05:00am 24.1 23.9 21.2 84 1.9 SE 24 39 13 21 1014.1 - 3.4
27/04:30am 24.3 24.5 21.4 84 1.9 SE 22 33 12 18 1014.2 - 3.4
27/04:00am 24.3 24.7 21.8 86 1.7 ESE 22 32 12 17 1014.1 - 3.4
27/03:45am 24.2 24.7 21.9 87 1.5 ESE 22 30 12 16 1014.0 - 3.4
27/03:31am 24.1 24.9 22.4 90 1.1 ESE 22 33 12 18 1014.2 - 3.4
27/03:30am 24.1 24.9 22.4 90 1.1 ESE 22 33 12 18 1014.2 - 3.4
27/03:26am 24.1 24.5 22.4 90 1.1 ESE 24 35 13 19 1014.2 - 3.4
27/03:14am 24.2 24.7 21.9 87 1.5 SE 22 35 12 19 1014.1 - 3.4
27/03:00am 24.5 24.2 21.8 85 1.8 ESE 26 33 14 18 1014.1 - 3.4
27/02:38am 24.9 24.1 21.6 82 2.2 ESE 28 46 15 25 1014.2 - 3.4
27/02:30am 24.8 24.4 21.7 83 2.1 ESE 26 35 14 19 1014.3 - 3.4
27/02:00am 24.6 26.2 22.1 86 1.7 ESE 17 24 9 13 1014.6 - 3.4
27/01:30am 24.7 25.0 22.2 86 1.7 SE 24 35 13 19 1014.8 - 3.4
27/01:22am 24.6 25.3 22.3 87 1.5 SE 22 35 12 19 1014.9 - 3.4
27/01:04am 25.1 26.4 22.4 85 1.8 ESE 19 24 10 13 1015.0 - 3.4
27/01:00am 25.1 26.3 22.2 84 1.9 ESE 19 30 10 16 1015.0 - 3.4
27/12:30am 25.1 25.9 22.4 85 1.8 ESE 22 32 12 17 1015.2 - 3.4
27/12:00am 24.5 26.0 22.7 90 1.2 SE 19 28 10 15 1015.3 - 3.4
 
Date/Time
EST
Temp
°C
App
Temp
°C
Dew
Point
Rel
Hum
%
Delta-T
°C
Wind Press
QNH
hPa
Press
MSL
hPa
Rain
since 9 am
mm
Dir
 
Spd
km/h
Gust
km/h
Spd
kts
Gust
kts
26/11:30pm 24.1 25.0 22.7 92 0.9 ESE 22 33 12 18 1015.5 - 3.4
26/11:00pm 23.7 25.4 22.3 92 0.9 SE 17 22 9 12 1015.8 - 3.2
26/10:30pm 23.6 22.4 21.5 88 1.4 SE 30 43 16 23 1016.2 - 3.2
26/10:00pm 25.0 25.3 22.3 85 1.8 SE 24 33 13 18 1016.0 - 2.2
26/09:30pm 24.7 23.6 21.8 84 1.9 SE 30 39 16 21 1015.9 - 2.2
26/09:00pm 25.1 25.2 21.8 82 2.2 ESE 24 44 13 24 1015.9 1015.8 2.2
26/08:31pm 24.7 23.5 21.6 83 2.1 SE 30 48 16 26 1015.7 - 2.2
26/08:30pm 24.6 23.8 21.7 84 1.9 SE 28 44 15 24 1015.7 - 2.2
26/08:00pm 24.5 25.6 22.4 88 1.4 SE 20 37 11 20 1015.6 - 2.2
26/07:49pm 24.3 25.6 22.4 89 1.3 SE 19 26 10 14 1015.5 - 2.2
26/07:35pm 24.1 25.3 22.5 91 1.1 SE 20 32 11 17 1015.4 - 2.2
26/07:30pm 24.1 24.9 22.5 91 1.1 SE 22 32 12 17 1015.4 - 2.2
26/07:23pm 23.9 24.7 22.5 92 0.9 SE 22 35 12 19 1015.4 - 2.2
26/07:13pm 23.9 24.2 22.3 91 1.1 ESE 24 32 13 17 1015.3 - 2.2
26/07:08pm 23.8 24.5 22.2 91 1.1 SE 22 32 12 17 1015.3 - 2.2
26/07:00pm 23.8 24.2 22.4 92 0.9 SE 24 39 13 21 1015.3 - 2.2
26/06:53pm 24.0 25.3 22.6 92 0.9 SE 20 28 11 15 1015.1 - 2.2
26/06:30pm 23.7 24.5 22.5 93 0.8 SE 22 37 12 20 1014.9 - 2.2
26/06:00pm 23.6 24.6 22.8 95 0.5 SE 22 32 12 17 1015.0 1014.9 1.8
26/05:41pm 24.5 26.0 22.7 90 1.2 SE 19 28 10 15 1014.7 - 1.0
26/05:30pm 24.5 25.9 22.9 91 1.1 SE 20 30 11 16 1014.7 - 1.0
26/05:19pm 24.3 25.6 22.7 91 1.1 SE 20 30 11 16 1014.7 - 1.0
26/05:00pm 24.3 24.0 22.6 90 1.1 SE 28 37 15 20 1014.7 - 1.0
26/04:30pm 25.3 25.4 22.6 85 1.8 SE 26 39 14 21 1014.5 - 0.2

Other Formats:

Comma delimited format used in spreadsheet applications
http://www.bom.gov.au/fwo/IDQ60801/IDQ60801.94186.axf

JavaScript Object Notation format (JSON) in row-major order
http://www.bom.gov.au/fwo/IDQ60801/IDQ60801.94186.json